createdAt,value
2022-12-03T00:00:15.662Z,12.05
2022-12-03T00:02:44.027Z,10.98
2022-12-03T00:05:13.955Z,11.18
2022-12-03T00:07:44.185Z,13.13
2022-12-03T00:10:13.225Z,12.15
2022-12-03T00:12:43.100Z,12.05
2022-12-03T00:15:12.264Z,12.57
2022-12-03T00:17:41.964Z,13.82
2022-12-03T00:20:10.950Z,12.63
2022-12-03T00:22:40.819Z,12.43
2022-12-03T00:25:09.783Z,12.20
2022-12-03T00:27:38.026Z,13.63
2022-12-03T00:30:07.374Z,12.82
2022-12-03T00:32:35.575Z,12.65
2022-12-03T00:35:05.407Z,11.88
2022-12-03T00:37:36.061Z,12.55
2022-12-03T00:40:06.102Z,12.68
2022-12-03T00:42:34.389Z,13.43
2022-12-03T00:45:02.619Z,13.00
2022-12-03T00:47:31.088Z,12.35
2022-12-03T00:49:59.489Z,14.02
2022-12-03T00:52:29.080Z,12.95
2022-12-03T00:54:57.445Z,13.00
2022-12-03T00:57:25.699Z,14.23
2022-12-03T00:59:54.059Z,13.70
2022-12-03T01:02:22.423Z,13.52
2022-12-03T01:04:51.018Z,13.00
2022-12-03T01:07:20.131Z,13.48
2022-12-03T01:09:52.301Z,12.23
2022-12-03T01:12:20.728Z,11.75
2022-12-03T01:14:52.212Z,13.13
2022-12-03T01:17:20.888Z,13.52
2022-12-03T01:19:52.323Z,14.40
2022-12-03T01:22:22.975Z,13.32
2022-12-03T01:24:52.925Z,11.93
2022-12-03T01:27:21.345Z,12.43
2022-12-03T01:29:49.845Z,13.55
2022-12-03T01:32:18.064Z,13.82
2022-12-03T01:34:46.687Z,12.73
2022-12-03T01:37:15.127Z,13.02
2022-12-03T01:39:44.109Z,12.23
2022-12-03T01:42:19.052Z,12.75
2022-12-03T01:44:47.920Z,13.15
2022-12-03T01:47:18.762Z,12.48
2022-12-03T01:49:48.851Z,13.48
2022-12-03T01:52:18.767Z,13.88
2022-12-03T01:54:48.862Z,13.05
2022-12-03T01:57:21.908Z,12.57
2022-12-03T01:59:51.010Z,13.52
2022-12-03T02:02:22.077Z,13.60
2022-12-03T02:04:54.210Z,12.57
2022-12-03T02:07:26.925Z,13.05
2022-12-03T02:09:58.041Z,13.10
2022-12-03T02:12:30.160Z,12.25
2022-12-03T02:14:58.569Z,13.68
2022-12-03T02:17:27.095Z,12.77
2022-12-03T02:19:55.958Z,12.90
2022-12-03T02:22:28.836Z,13.40
2022-12-03T02:24:57.811Z,13.63
2022-12-03T02:27:31.007Z,13.02
2022-12-03T02:29:59.689Z,12.18
2022-12-03T02:32:27.941Z,13.93
2022-12-03T02:34:56.618Z,12.02
2022-12-03T02:37:26.769Z,12.65
2022-12-03T02:39:58.031Z,13.57
2022-12-03T02:42:37.726Z,14.57
2022-12-03T02:45:08.238Z,12.25
2022-12-03T02:47:37.905Z,12.75
2022-12-03T02:50:06.784Z,14.55
2022-12-03T02:52:38.791Z,13.52
2022-12-03T02:55:08.607Z,12.95
2022-12-03T02:57:39.411Z,13.77
2022-12-03T03:00:09.917Z,14.45
2022-12-03T03:02:38.437Z,12.30
2022-12-03T03:05:10.744Z,11.90
2022-12-03T03:07:41.474Z,13.30
2022-12-03T03:10:15.328Z,12.70
2022-12-03T03:12:45.239Z,12.70
2022-12-03T03:15:13.634Z,13.10
2022-12-03T03:17:42.600Z,13.27
2022-12-03T03:20:14.590Z,11.98
2022-12-03T03:22:48.132Z,12.85
2022-12-03T03:25:18.177Z,11.95
2022-12-03T03:27:50.039Z,12.98
2022-12-03T03:30:18.800Z,13.40
2022-12-03T03:32:48.853Z,12.38
2022-12-03T03:35:18.068Z,13.05
2022-12-03T03:37:46.726Z,15.00
2022-12-03T03:40:15.133Z,13.38
2022-12-03T03:42:43.418Z,13.15
2022-12-03T03:45:15.358Z,13.77
2022-12-03T03:47:44.356Z,11.55
2022-12-03T03:50:13.912Z,11.88
2022-12-03T03:52:44.734Z,11.85
2022-12-03T03:55:13.579Z,13.07
2022-12-03T03:57:41.925Z,12.80
2022-12-03T04:00:10.847Z,11.60
2022-12-03T04:02:40.739Z,11.07
2022-12-03T04:05:09.815Z,11.30
2022-12-03T04:07:38.227Z,11.40
2022-12-03T04:10:27.270Z,12.35
2022-12-03T04:12:56.548Z,10.45
2022-12-03T04:15:25.234Z,13.30
2022-12-03T04:18:09.023Z,12.52
2022-12-03T04:20:37.317Z,12.57
2022-12-03T04:23:04.622Z,11.82
2022-12-03T04:25:50.514Z,11.13
2022-12-03T04:28:36.866Z,12.10
2022-12-03T04:31:38.682Z,10.55
2022-12-03T04:34:25.873Z,12.05
2022-12-03T04:36:54.178Z,12.25
2022-12-03T04:39:22.771Z,11.70
2022-12-03T04:41:50.977Z,12.18
2022-12-03T04:44:36.164Z,13.20
2022-12-03T04:47:06.224Z,12.50
2022-12-03T04:49:36.196Z,12.23
2022-12-03T04:52:04.399Z,12.25
2022-12-03T04:54:34.110Z,12.60
2022-12-03T04:57:02.450Z,12.35
2022-12-03T04:59:30.920Z,11.75
2022-12-03T05:01:59.598Z,12.55
2022-12-03T05:04:28.002Z,11.80
2022-12-03T05:06:57.611Z,12.27
2022-12-03T05:09:25.891Z,11.93
2022-12-03T05:11:56.284Z,11.70
2022-12-03T05:14:26.329Z,12.80
2022-12-03T05:16:54.728Z,13.50
2022-12-03T05:19:43.344Z,12.07
2022-12-03T05:22:13.015Z,12.20
2022-12-03T05:24:41.414Z,12.32
2022-12-03T05:27:15.007Z,11.63
2022-12-03T05:29:44.873Z,12.45
2022-12-03T05:32:13.092Z,12.52
2022-12-03T05:34:41.272Z,13.23
2022-12-03T05:37:09.640Z,11.77
2022-12-03T05:39:43.530Z,12.25
2022-12-03T05:42:32.071Z,13.10
2022-12-03T05:45:00.383Z,14.88
2022-12-03T05:47:30.936Z,12.45
2022-12-03T05:49:59.293Z,12.52
2022-12-03T05:52:27.629Z,13.27
2022-12-03T05:55:01.138Z,13.02
2022-12-03T05:57:30.436Z,12.20
2022-12-03T05:59:58.824Z,11.85
2022-12-03T06:02:27.211Z,12.35
2022-12-03T06:04:56.045Z,12.02
2022-12-03T06:07:33.623Z,13.55
2022-12-03T06:10:03.543Z,12.70
2022-12-03T06:12:36.738Z,11.73
2022-12-03T06:15:06.544Z,12.13
2022-12-03T06:17:35.077Z,12.18
2022-12-03T06:20:03.834Z,11.60
2022-12-03T06:22:32.195Z,13.32
2022-12-03T06:25:06.413Z,12.10
2022-12-03T06:27:37.493Z,12.57
2022-12-03T06:30:06.252Z,11.25
2022-12-03T06:32:34.505Z,13.23
2022-12-03T06:35:04.433Z,12.43
2022-12-03T06:37:32.751Z,12.30
2022-12-03T06:40:02.519Z,12.82
2022-12-03T06:42:30.894Z,12.80
2022-12-03T06:45:00.397Z,12.52
2022-12-03T06:47:31.600Z,13.48
2022-12-03T06:49:59.816Z,13.90
2022-12-03T06:52:28.094Z,13.13
2022-12-03T06:55:11.799Z,15.18
2022-12-03T06:57:40.116Z,14.60
2022-12-03T07:00:12.632Z,14.52
2022-12-03T07:02:41.401Z,15.00
2022-12-03T07:05:09.961Z,12.77
2022-12-03T07:07:38.783Z,13.15
2022-12-03T07:10:09.735Z,15.50
2022-12-03T07:12:38.002Z,14.88
2022-12-03T07:15:06.654Z,14.98
2022-12-03T07:17:36.449Z,15.75
2022-12-03T07:20:05.621Z,16.38
2022-12-03T07:22:34.018Z,14.63
2022-12-03T07:25:02.358Z,16.10
2022-12-03T07:27:30.548Z,15.13
2022-12-03T07:29:58.842Z,15.32
2022-12-03T07:32:28.695Z,15.73
2022-12-03T07:34:58.282Z,17.02
2022-12-03T07:37:26.662Z,16.27
2022-12-03T07:39:55.078Z,15.50
2022-12-03T07:42:23.342Z,14.63
2022-12-03T07:44:52.033Z,15.52
2022-12-03T07:47:25.508Z,15.00
2022-12-03T07:49:53.830Z,15.30
2022-12-03T07:52:27.220Z,15.32
2022-12-03T07:54:55.860Z,15.80
2022-12-03T07:57:26.106Z,15.40
2022-12-03T07:59:55.237Z,13.52
2022-12-03T08:02:25.584Z,16.10
2022-12-03T08:04:55.319Z,14.63
2022-12-03T08:07:25.239Z,15.80
2022-12-03T08:09:57.858Z,15.98
2022-12-03T08:12:40.054Z,14.32
2022-12-03T08:15:12.496Z,15.15
2022-12-03T08:17:42.325Z,16.58
2022-12-03T08:20:16.302Z,15.07
2022-12-03T08:22:47.935Z,14.90
2022-12-03T08:25:23.647Z,15.20
2022-12-03T08:27:59.889Z,14.43
2022-12-03T08:30:28.331Z,15.05
2022-12-03T08:32:59.254Z,14.93
2022-12-03T08:35:31.586Z,14.00
2022-12-03T08:38:11.941Z,13.43
2022-12-03T08:40:41.488Z,14.65
2022-12-03T08:43:16.602Z,15.10
2022-12-03T08:45:49.342Z,15.18
2022-12-03T08:48:32.441Z,14.23
2022-12-03T08:51:02.411Z,13.98
2022-12-03T08:53:35.261Z,13.45
2022-12-03T08:56:08.202Z,13.77
2022-12-03T08:58:41.155Z,14.70
2022-12-03T09:01:39.375Z,13.30
2022-12-03T09:04:30.768Z,14.32
2022-12-03T09:06:59.561Z,13.80
2022-12-03T09:09:29.440Z,14.55
2022-12-03T09:11:57.932Z,13.77
2022-12-03T09:14:26.276Z,14.35
2022-12-03T09:16:56.724Z,13.40
2022-12-03T09:19:25.276Z,15.13
2022-12-03T09:21:56.063Z,14.85
2022-12-03T09:24:24.340Z,15.63
2022-12-03T09:26:53.979Z,14.30
2022-12-03T09:29:22.366Z,14.68
2022-12-03T09:31:53.948Z,14.60
2022-12-03T09:34:22.232Z,14.98
2022-12-03T09:36:50.656Z,15.30
2022-12-03T09:39:20.766Z,15.13
2022-12-03T09:41:49.130Z,15.85
2022-12-03T09:44:18.808Z,14.80
2022-12-03T09:46:50.957Z,14.30
2022-12-03T09:49:20.632Z,15.85
2022-12-03T09:51:50.902Z,15.57
2022-12-03T09:54:24.192Z,16.23
2022-12-03T09:56:52.814Z,14.55
2022-12-03T09:59:22.841Z,16.10
2022-12-03T10:01:52.382Z,17.75
2022-12-03T10:04:22.741Z,17.25
2022-12-03T10:06:51.214Z,16.42
2022-12-03T10:09:24.034Z,16.27
2022-12-03T10:11:52.411Z,14.60
2022-12-03T10:14:23.934Z,17.05
2022-12-03T10:16:52.331Z,15.85
2022-12-03T10:19:24.250Z,14.68
2022-12-03T10:21:52.781Z,15.68
2022-12-03T10:24:26.499Z,13.93
2022-12-03T10:26:56.689Z,15.55
2022-12-03T10:29:33.188Z,16.10
2022-12-03T10:32:05.098Z,14.18
2022-12-03T10:34:34.683Z,15.60
2022-12-03T10:37:10.938Z,15.65
2022-12-03T10:39:56.094Z,14.48
2022-12-03T10:42:25.291Z,15.57
2022-12-03T10:45:08.709Z,16.20
2022-12-03T10:47:39.699Z,14.98
2022-12-03T10:50:15.885Z,15.00
2022-12-03T10:52:45.627Z,15.18
2022-12-03T10:55:16.290Z,16.15
2022-12-03T10:57:50.735Z,16.67
2022-12-03T11:00:22.712Z,15.13
2022-12-03T11:02:56.727Z,15.13
2022-12-03T11:05:35.145Z,16.60
2022-12-03T11:08:11.031Z,15.82
2022-12-03T11:10:39.502Z,15.63
2022-12-03T11:13:26.770Z,15.27
2022-12-03T11:15:57.497Z,17.00
2022-12-03T11:18:49.112Z,16.55
2022-12-03T11:21:23.542Z,15.07
2022-12-03T11:24:18.644Z,14.90
2022-12-03T11:27:20.871Z,16.70
2022-12-03T11:29:59.602Z,16.75
2022-12-03T11:32:48.398Z,16.30
2022-12-03T11:35:19.280Z,15.15
2022-12-03T11:37:52.646Z,15.88
2022-12-03T11:40:34.769Z,14.23
2022-12-03T11:43:08.976Z,14.70
2022-12-03T11:45:38.479Z,15.80
2022-12-03T11:48:13.633Z,14.88
2022-12-03T11:50:43.564Z,13.07
2022-12-03T11:53:17.149Z,14.25
2022-12-03T11:55:51.860Z,14.77
2022-12-03T11:58:27.832Z,13.55
2022-12-03T12:00:57.122Z,15.60
2022-12-03T12:03:29.435Z,15.18
2022-12-03T12:06:02.096Z,13.52
2022-12-03T12:08:31.844Z,16.25
2022-12-03T12:11:00.312Z,14.32
2022-12-03T12:13:52.853Z,15.45
2022-12-03T12:16:40.080Z,15.50
2022-12-03T12:19:27.287Z,14.65
2022-12-03T12:21:57.991Z,14.80
2022-12-03T12:24:36.362Z,15.35
2022-12-03T12:27:06.513Z,16.88
2022-12-03T12:29:37.282Z,16.60
2022-12-03T12:32:13.266Z,16.63
2022-12-03T12:34:41.927Z,15.57
2022-12-03T12:37:15.408Z,16.67
2022-12-03T12:39:45.814Z,16.48
2022-12-03T12:42:27.592Z,16.15
2022-12-03T12:44:56.084Z,17.20
2022-12-03T12:47:24.526Z,17.17
2022-12-03T12:49:53.448Z,17.45
2022-12-03T12:52:22.048Z,17.40
2022-12-03T12:54:51.606Z,14.88
2022-12-03T12:57:22.898Z,15.55
2022-12-03T12:59:51.834Z,15.10
2022-12-03T13:02:41.797Z,16.42
2022-12-03T13:05:12.301Z,15.43
2022-12-03T13:07:41.229Z,15.90
2022-12-03T13:10:26.140Z,16.33
2022-12-03T13:12:54.459Z,13.30
2022-12-03T13:15:38.311Z,15.68
2022-12-03T13:18:17.904Z,16.70
2022-12-03T13:20:47.900Z,15.93
2022-12-03T13:23:24.919Z,13.85
2022-12-03T13:26:03.794Z,15.77
2022-12-03T13:28:40.355Z,14.07
2022-12-03T13:31:20.560Z,12.35
2022-12-03T13:33:48.921Z,13.93
2022-12-03T13:36:17.873Z,11.68
2022-12-03T13:38:47.767Z,12.32
2022-12-03T13:41:32.546Z,12.63
2022-12-03T13:44:03.263Z,13.15
2022-12-03T13:46:38.641Z,11.55
2022-12-03T13:49:12.996Z,10.98
2022-12-03T13:51:42.797Z,11.38
2022-12-03T13:54:15.988Z,10.80
2022-12-03T13:56:46.483Z,10.30
2022-12-03T13:59:14.863Z,10.93
2022-12-03T14:01:43.421Z,9.95
2022-12-03T14:04:11.905Z,9.48
2022-12-03T14:06:40.256Z,9.38
2022-12-03T14:09:08.492Z,8.50
2022-12-03T14:11:54.494Z,8.80
2022-12-03T14:14:24.163Z,9.02
2022-12-03T14:16:59.896Z,10.13
2022-12-03T14:19:28.607Z,10.88
2022-12-03T14:21:56.974Z,10.27
2022-12-03T14:24:25.212Z,11.23
2022-12-03T14:26:55.335Z,11.07
2022-12-03T14:29:27.378Z,10.77
2022-12-03T14:31:55.682Z,11.20
2022-12-03T14:34:24.006Z,12.13
2022-12-03T14:36:54.186Z,12.88
2022-12-03T14:39:22.678Z,12.52
2022-12-03T14:42:09.246Z,13.68
2022-12-03T14:44:39.023Z,12.48
2022-12-03T14:47:11.360Z,13.68
2022-12-03T14:49:39.643Z,12.25
2022-12-03T14:52:11.975Z,12.95
2022-12-03T14:54:42.635Z,13.93
2022-12-03T14:57:13.489Z,12.13
2022-12-03T14:59:48.011Z,13.48
2022-12-03T15:02:21.663Z,13.93
2022-12-03T15:04:56.654Z,14.40
2022-12-03T15:07:25.102Z,13.98
2022-12-03T15:09:57.590Z,15.00
2022-12-03T15:12:26.214Z,15.77
2022-12-03T15:14:55.947Z,14.30
2022-12-03T15:17:31.214Z,14.70
2022-12-03T15:20:00.528Z,15.48
2022-12-03T15:22:29.757Z,15.40
2022-12-03T15:25:03.337Z,15.73
2022-12-03T15:27:31.509Z,15.27
2022-12-03T15:30:09.919Z,15.35
2022-12-03T15:32:40.689Z,15.25
2022-12-03T15:35:20.803Z,14.48
2022-12-03T15:37:51.777Z,16.77
2022-12-03T15:40:21.233Z,17.30
2022-12-03T15:42:56.684Z,19.70
2022-12-03T15:45:33.639Z,18.40
2022-12-03T15:48:04.854Z,15.23
2022-12-03T15:50:40.080Z,17.65
2022-12-03T15:53:08.698Z,18.67
2022-12-03T15:55:43.692Z,17.05
2022-12-03T15:58:13.918Z,19.35
2022-12-03T16:00:50.746Z,16.92
2022-12-03T16:03:19.621Z,18.75
2022-12-03T16:05:48.215Z,16.20
2022-12-03T16:08:19.320Z,15.82
2022-12-03T16:10:50.674Z,17.13
2022-12-03T16:13:22.109Z,16.13
2022-12-03T16:15:51.720Z,16.88
2022-12-03T16:18:20.071Z,16.73
2022-12-03T16:20:50.692Z,14.73
2022-12-03T16:23:19.278Z,15.68
2022-12-03T16:25:47.700Z,16.40
2022-12-03T16:28:21.880Z,13.95
2022-12-03T16:30:57.745Z,15.35
2022-12-03T16:33:31.326Z,14.50
2022-12-03T16:35:59.774Z,13.68
2022-12-03T16:38:34.058Z,13.50
2022-12-03T16:41:08.828Z,14.18
2022-12-03T16:43:38.893Z,13.35
2022-12-03T16:46:30.056Z,14.30
2022-12-03T16:48:58.951Z,15.00
2022-12-03T16:51:28.085Z,12.57
2022-12-03T16:54:02.000Z,14.40
2022-12-03T16:56:30.366Z,12.52
2022-12-03T16:58:58.632Z,15.65
2022-12-03T17:01:28.382Z,15.80
2022-12-03T17:04:00.999Z,13.27
2022-12-03T17:06:29.340Z,13.43
2022-12-03T17:08:57.646Z,13.65
2022-12-03T17:11:25.858Z,13.35
2022-12-03T17:13:54.139Z,12.55
2022-12-03T17:16:22.484Z,13.32
2022-12-03T17:18:52.347Z,13.88
2022-12-03T17:21:20.808Z,13.80
2022-12-03T17:23:51.023Z,12.75
2022-12-03T17:26:22.132Z,15.10
2022-12-03T17:28:51.579Z,15.27
2022-12-03T17:31:20.003Z,16.38
2022-12-03T17:33:50.664Z,15.50
2022-12-03T17:36:20.264Z,18.85
2022-12-03T17:38:48.702Z,17.73
2022-12-03T17:41:17.412Z,18.17
2022-12-03T17:43:45.627Z,16.98
2022-12-03T17:46:13.882Z,19.08
2022-12-03T17:48:42.674Z,18.55
2022-12-03T17:51:11.053Z,19.55
2022-12-03T17:53:40.670Z,17.95
2022-12-03T17:56:09.534Z,18.75
2022-12-03T17:58:37.867Z,20.45
2022-12-03T18:01:08.479Z,18.48
2022-12-03T18:03:36.732Z,19.25
2022-12-03T18:06:12.230Z,19.92
2022-12-03T18:08:44.068Z,18.45
2022-12-03T18:11:12.424Z,18.80
2022-12-03T18:13:40.633Z,17.92
2022-12-03T18:16:11.240Z,17.95
2022-12-03T18:18:39.582Z,16.80
2022-12-03T18:21:08.133Z,19.48
2022-12-03T18:23:37.340Z,19.75
2022-12-03T18:26:10.288Z,20.33
2022-12-03T18:28:41.139Z,18.77
2022-12-03T18:31:13.604Z,18.52
2022-12-03T18:33:44.361Z,18.45
2022-12-03T18:36:17.884Z,18.38
2022-12-03T18:38:50.571Z,17.92
2022-12-03T18:41:20.542Z,17.63
2022-12-03T18:43:48.759Z,18.00
2022-12-03T18:49:10.947Z,18.50
2022-12-03T18:51:41.303Z,17.10
2022-12-03T18:54:16.791Z,15.70
2022-12-03T18:56:46.611Z,17.83
2022-12-03T18:59:15.238Z,15.35
2022-12-03T19:01:44.920Z,14.40
2022-12-03T19:04:17.724Z,17.48
2022-12-03T19:06:46.387Z,17.25
2022-12-03T19:09:14.723Z,16.95
2022-12-03T19:11:43.077Z,19.08
2022-12-03T19:14:17.620Z,18.75
2022-12-03T19:16:50.142Z,17.75
2022-12-03T19:19:18.617Z,18.27
2022-12-03T19:21:46.837Z,18.67
2022-12-03T19:24:30.356Z,20.67
2022-12-03T19:26:58.818Z,17.88
2022-12-03T19:29:28.534Z,17.35
2022-12-03T19:31:56.804Z,17.65
2022-12-03T19:34:25.769Z,16.85
2022-12-03T19:36:53.939Z,15.88
2022-12-03T19:39:24.828Z,15.30
2022-12-03T19:41:55.311Z,15.43
2022-12-03T19:44:23.577Z,15.65
2022-12-03T19:46:53.152Z,16.90
2022-12-03T19:49:21.916Z,17.80
2022-12-03T19:51:52.631Z,19.33
2022-12-03T19:54:20.917Z,17.42
2022-12-03T19:56:49.562Z,17.75
2022-12-03T19:59:17.914Z,19.73
2022-12-03T20:01:46.723Z,20.20
2022-12-03T20:04:16.770Z,17.80
2022-12-03T20:06:48.266Z,18.25
2022-12-03T20:09:17.997Z,18.67
2022-12-03T20:11:46.763Z,18.88
2022-12-03T20:14:15.860Z,18.92
2022-12-03T20:16:44.510Z,21.08
2022-12-03T20:19:13.827Z,20.58
2022-12-03T20:21:43.831Z,19.95
2022-12-03T20:24:16.490Z,16.63
2022-12-03T20:26:47.823Z,20.38
2022-12-03T20:29:16.202Z,19.08
2022-12-03T20:31:44.961Z,20.00
2022-12-03T20:34:13.447Z,20.05
2022-12-03T20:36:44.260Z,16.85
2022-12-03T20:39:16.553Z,16.45
2022-12-03T20:41:49.619Z,15.60
2022-12-03T20:44:17.894Z,18.17
2022-12-03T20:46:49.382Z,16.35
2022-12-03T20:49:20.066Z,15.90
2022-12-03T20:51:50.882Z,14.95
2022-12-03T20:54:20.846Z,15.55
2022-12-03T20:56:51.458Z,16.63
2022-12-03T20:59:19.821Z,17.85
2022-12-03T21:01:48.728Z,17.23
2022-12-03T21:04:18.018Z,16.38
2022-12-03T21:06:46.935Z,17.63
2022-12-03T21:09:15.263Z,17.35
2022-12-03T21:11:45.282Z,17.98
2022-12-03T21:14:20.256Z,17.02
2022-12-03T21:17:07.847Z,17.77
2022-12-03T21:19:37.299Z,18.65
2022-12-03T21:22:05.629Z,18.65
2022-12-03T21:24:35.292Z,17.25
2022-12-03T21:27:05.022Z,17.90
2022-12-03T21:29:35.512Z,18.70
2022-12-03T21:32:03.699Z,18.10
2022-12-03T21:34:36.127Z,18.50
2022-12-03T21:37:05.112Z,17.98
2022-12-03T21:39:37.661Z,18.70
2022-12-03T21:42:34.007Z,20.05
2022-12-03T21:45:00.091Z,17.35
2022-12-03T21:47:33.456Z,18.02
2022-12-03T21:50:05.374Z,18.30
2022-12-03T21:52:33.610Z,16.65
2022-12-03T21:55:04.308Z,20.17
2022-12-03T21:57:36.194Z,19.10
2022-12-03T22:00:07.816Z,18.45
2022-12-03T22:02:39.778Z,18.10
2022-12-03T22:05:08.703Z,19.00
2022-12-03T22:07:39.779Z,18.55
2022-12-03T22:10:10.938Z,18.45
2022-12-03T22:12:41.877Z,19.95
2022-12-03T22:15:18.356Z,18.67
2022-12-03T22:17:47.803Z,18.80
2022-12-03T22:20:16.701Z,18.75
2022-12-03T22:22:44.959Z,17.73
2022-12-03T22:25:15.774Z,18.02
2022-12-03T22:27:45.401Z,17.67
2022-12-03T22:30:15.800Z,17.90
2022-12-03T22:32:45.912Z,19.67
2022-12-03T22:35:14.327Z,18.85
2022-12-03T22:37:45.249Z,18.08
2022-12-03T22:40:13.747Z,18.20
2022-12-03T22:42:46.354Z,17.77
2022-12-03T22:45:20.229Z,18.55
2022-12-03T22:47:48.717Z,18.00
2022-12-03T22:50:19.446Z,19.00
2022-12-03T22:52:47.941Z,16.92
2022-12-03T22:55:16.724Z,19.65
2022-12-03T22:57:51.039Z,17.50
2022-12-03T23:00:29.584Z,20.00
2022-12-03T23:02:57.852Z,17.83
2022-12-03T23:05:30.814Z,17.25
2022-12-03T23:07:59.143Z,19.38
2022-12-03T23:10:32.540Z,19.75
2022-12-03T23:13:02.540Z,20.65
2022-12-03T23:15:37.023Z,19.52
2022-12-03T23:18:05.720Z,17.48
2022-12-03T23:20:34.088Z,19.77
2022-12-03T23:23:02.308Z,20.08
2022-12-03T23:25:30.550Z,19.52
2022-12-03T23:27:58.812Z,18.40
2022-12-03T23:30:27.038Z,19.42
2022-12-03T23:32:56.612Z,19.02
2022-12-03T23:35:26.916Z,20.48
2022-12-03T23:37:57.921Z,18.73
2022-12-03T23:40:28.314Z,20.40
2022-12-03T23:43:02.259Z,19.67
2022-12-03T23:45:34.895Z,17.58
2022-12-03T23:48:04.905Z,18.02
2022-12-03T23:50:37.146Z,19.75
2022-12-03T23:53:07.887Z,19.13
2022-12-03T23:55:36.941Z,19.27
2022-12-03T23:58:07.090Z,17.20
